Jesup, GA

6:52 AM EST on February 25, 2017 (GMT -0500)
Windy Ridge | | Change Station
Active Advisory: Dense Fog Advisory

Elev 137 ft 31.65 °N, 81.96 °W | Updated 4 seconds ago

Overcast
Overcast
60.8 °F
Feels Like 60.8 °F
N
0.0
Wind Variable Wind from SW
Gusts 0.0 mph

Today
High -- | Low -- °F
--% Chance of Precip.
Yesterday
High -- | Low -- °F
Precip. -- in
Pressure 29.85 in
Visibility 5.0 miles
Clouds Overcast 3600 ft
Dew Point 60 °F
Humidity 97%
Rainfall 0.00 in
Snow Depth Not available.
6:58 AM 6:22 PM
Waning Crescent, 2% visible
METAR KJES 251135Z AUTO 00000KT 5SM BR OVC036 17/16 A2985 RMK AO2
Pressure 29.85 in
Visibility 5.0 miles
Clouds Overcast 3600 ft
Dew Point 60 °F
Humidity 97%
Rainfall 0.00 in
Snow Depth Not available.
6:58 AM 6:22 PM
Waning Crescent, 2% visible
METAR KJES 251135Z AUTO 00000KT 5SM BR OVC036 17/16 A2985 RMK AO2

Get Your Daily Forecast Email!

Thanks for signing up!

Be on the lookout for a verification email in your inbox.

You'll start receiving the daily forecast at 8 AM.

×

10-Day Weather Forecast

Almanac

Astronomy

Feb. 25, 2017 Rise Set
Actual Time
Civil Twilight
Nautical Twilight
Astronomical Twilight
Moon
Length of Visible Light
Length of Day
Tomorrow will be .
, % of the Moon is Illuminated

Today's Extremes

State Highs State Lows

Community

WunderPhotos

Upload Photos

1,962,540 photos uploaded!

WunderBlog® & News

Nearby

Air Quality

  Air Quality AQ Index Pollutant
Not available.

Snow Depth

Station Depth Elevation

Earthquake Activity

City Distance Mag. Time & Date
Minimum magnitude displayed is 2.5.

Coastal Water Temperatures

Place Temperature

Stations

Nearby Weather Stations

Station Location Temp. Windchill Dew Point Humidity Wind Precip. Elev Updated Type
                   

Watches & Warnings

Dense Fog Advisory
Issued: 3:25 AM EST Feb. 25, 2017 – National Weather Service

... Dense fog advisory in effect until 10 am EST this morning...

The National Weather Service in Jacksonville has issued a dense
fog advisory, which is in effect until 10 am EST this morning.

* Visibility... one half to one quarter mile or less.

* Impacts... motorists should drive with extreme caution. Slow
down where visibilities are reduced, use low beam headlights,
and leave plenty of distance ahead of you.

Precautionary/preparedness actions...

A dense fog advisory means visibilities will frequently be
reduced to one quarter mile or less. If driving, slow down, use
your low beam headlights, and leave plenty of distance ahead of
you.